Clearfield, PA

1:54 AM EDT on July 28, 2014 (GMT -0400)
Clearfield-Lawrence (KFIG) Elev 1516 ft | 41.05 °N, 78.41 °W | Change Station

Current weather conditions updated 15 minutes ago

Light Rain
Light Rain Mist
62 °F
Feels Like 62 °F
N
6
Wind Variable Wind from NE

Today is forecast to be Much Cooler than yesterday. Thundershowers.

Today
High -- | Low -- °F
--% Chance of Precip.
Yesterday
High -- | Low -- °F
Precip. -- in
6:05 AM 8:34 PM
New Moon, 2% visible
Pressure 29.62 in
Visibility 3.0 miles
Clouds Few 300 ft
Mostly Cloudy 1000 ft
Overcast 2600 ft
Dew Point 62 °F
Humidity 100%
Rainfall 0.35 in
Snow Depth Not available.
UV 0 out of 12
Pollen 4.70 out of 12
Air Quality Not available.
Flu Activity Not available.
SPECI KFIG 280539Z AUTO 05005KT 3SM -RA BR FEW003 BKN010 OVC026 17/17 A2962 RMK AO2 LTG DSNT E PRESFR P0005 T01670167

More Conditions Fewer Conditions

Pressure 29.62 in
Visibility 3.0 miles
Clouds Few 300 ft
Mostly Cloudy 1000 ft
Overcast 2600 ft
Dew Point 62 °F
Humidity 100%
Rainfall 0.35 in
Snow Depth Not available.
UV 0 out of 12
Pollen 4.70 out of 12
Air Quality Not available.
Flu Activity Not available.
SPECI KFIG 280539Z AUTO 05005KT 3SM -RA BR FEW003 BKN010 OVC026 17/17 A2962 RMK AO2 LTG DSNT E PRESFR P0005 T01670167

More Conditions Fewer Conditions

Nowcast | as of 1:50 am EDT on July 28, 2014

Showers and storms will taper off from west to east by 5 am. Most of the activity will be east of a Bradford...Somerset line early on. Some storms will contain heavy downpours. The showers and storms are moving east at 30 mph.

×

10-Day Weather Forecast

Almanac

Astronomy

Jul. 28, 2014 Rise Set
Actual Time 6:05 AM EDT 8:34 PM EDT
Civil Twilight 5:34 AM EDT 9:05 PM EDT
Nautical Twilight 4:55 AM EDT 9:44 PM EDT
Astronomical Twilight 4:12 AM EDT 10:27 PM EDT
Moon 7:47 AM EDT 9:13 PM EDT
Length of Visible Light 15h 30m
Length of Day
14h 28m
Tomorrow will be 1m 58s shorter.
New Moon, 2% of the Moon is Illuminated
Today
New Moon
Aug 3
First Quarter
Aug 10
Full
Aug 17
Last Quarter
Aug 25
New

Today's Extremes

State Highs State Lows

Community

WunderPhotos

Upload Photos

1,738,299 photos uploaded!

Nearby

Snow Depth

Station Depth Elevation
No new snow has been reported.

Earthquake Activity

City Distance Mag. Time & Date
No recent earthquake activity has been reported nearby.
Minimum magnitude displayed is 2.5.

Coastal Water Temperatures

Place Temperature
No Stations Reporting

Nearby Weather Stations

Station Location Temp. Dew Point Humidity Wind Precip. Elev Updated Type
Holly Terrace, Falls Creek, PA 61.0 °F 61 °F 99% WSW  at  0.0 mph 0.04 in / hr 1473 ft 1:54 AM EDT Rapid Fire

Show More Stations Show Fewer Stations